Time;durP1;ratioP1;P1;durP2;ratioP2;P2;SDS_P1;SDS_P2;PMS_P1;PMS_P2;Temp;Humidity;BMP_temperature;BMP_pressure;BME280_temperature;BME280_humidity;BME280_pressure;Samples;Min_cycle;Max_cycle;Signal;HPM_P1;HPM_P2
2023/09/27 00:01:32;;;;;;;8.90;7.28;;;;;;;;;;4929229;29;20449;-74
2023/09/27 00:03:59;;;;;;;24.17;22.38;;;;;;;;;;4922558;29;20443;-73
2023/09/27 00:06:26;;;;;;;21.45;19.50;;;;;;;;;;4924879;29;20441;-74
2023/09/27 00:08:53;;;;;;;29.58;27.17;;;;;;;;;;4907578;29;20979;-73
2023/09/27 00:11:20;;;;;;;28.02;25.83;;;;;;;;;;4923766;29;20441;-74
2023/09/27 00:13:49;;;;;;;16.52;14.95;;;;;;;;;;4908317;29;21017;-74
2023/09/27 00:16:16;;;;;;;9.27;6.93;;;;;;;;;;4925574;29;20440;-74
2023/09/27 00:18:43;;;;;;;16.53;15.03;;;;;;;;;;4913904;29;20833;-74
2023/09/27 00:21:10;;;;;;;83.20;77.37;;;;;;;;;;4924710;29;20448;-74
2023/09/27 00:23:37;;;;;;;74.30;69.13;;;;;;;;;;4922862;29;20526;-73
2023/09/27 00:26:04;;;;;;;219.63;200.67;;;;;;;;;;4927900;29;20838;-74
2023/09/27 00:28:32;;;;;;;35.15;32.63;;;;;;;;;;4923697;29;20929;-74
2023/09/27 00:31:01;;;;;;;6.55;5.95;;;;;;;;;;4924364;29;20439;-73
2023/09/27 00:33:29;;;;;;;9.68;8.80;;;;;;;;;;4925592;29;20514;-73
2023/09/27 00:35:56;;;;;;;6.15;5.13;;;;;;;;;;4919413;29;20833;-74
2023/09/27 00:38:24;;;;;;;8.98;5.07;;;;;;;;;;4923384;29;20997;-73
2023/09/27 00:40:54;;;;;;;152.55;137.10;;;;;;;;;;4917001;29;20436;-73
2023/09/27 00:43:31;;;;;;;38.17;35.00;;;;;;;;;;4928099;29;20983;-74
2023/09/27 00:46:01;;;;;;;54.08;50.20;;;;;;;;;;4924679;29;20950;-74
2023/09/27 00:48:30;;;;;;;271.63;247.90;;;;;;;;;;4930290;29;20467;-74
2023/09/27 00:50:57;;;;;;;176.40;162.82;;;;;;;;;;4920183;29;20438;-74
2023/09/27 00:53:26;;;;;;;575.85;525.22;;;;;;;;;;4926404;29;20502;-74
2023/09/27 00:55:53;;;;;;;589.85;538.90;;;;;;;;;;4917918;29;20450;-74
2023/09/27 00:58:20;;;;;;;572.83;524.58;;;;;;;;;;4921356;29;20433;-74
2023/09/27 01:00:50;;;;;;;620.20;560.10;;;;;;;;;;4923023;29;20474;-74
2023/09/27 01:03:18;;;;;;;639.42;573.65;;;;;;;;;;4930149;29;20943;-75
2023/09/27 01:05:46;;;;;;;649.03;581.53;;;;;;;;;;4924869;29;20910;-74
2023/09/27 01:08:15;;;;;;;691.47;609.65;;;;;;;;;;4923228;29;20439;-74
2023/09/27 01:10:43;;;;;;;749.10;627.67;;;;;;;;;;4920682;29;20437;-73
2023/09/27 01:13:10;;;;;;;85.07;78.80;;;;;;;;;;4905825;29;20913;-74
2023/09/27 01:15:37;;;;;;;343.35;314.38;;;;;;;;;;4930129;29;20446;-73
2023/09/27 01:18:05;;;;;;;299.58;274.50;;;;;;;;;;4923866;29;20439;-73
2023/09/27 01:20:34;;;;;;;595.33;544.28;;;;;;;;;;4923470;29;20528;-73
2023/09/27 01:23:02;;;;;;;651.40;587.53;;;;;;;;;;4924804;29;20455;-73
2023/09/27 01:25:30;;;;;;;709.15;630.10;;;;;;;;;;4922748;29;21085;-73
2023/09/27 01:28:01;;;;;;;759.78;641.60;;;;;;;;;;4927452;29;20455;-73
2023/09/27 01:30:32;;;;;;;552.00;502.83;;;;;;;;;;4904074;29;20441;-72
2023/09/27 01:33:09;;;;;;;254.73;234.23;;;;;;;;;;4923534;29;20506;-73
2023/09/27 01:35:43;;;;;;;549.20;503.77;;;;;;;;;;4927144;29;20462;-73
2023/09/27 01:38:11;;;;;;;438.20;401.35;;;;;;;;;;4930153;29;20440;-73
2023/09/27 01:40:40;;;;;;;550.70;505.58;;;;;;;;;;4927730;29;20996;-73
2023/09/27 01:43:07;;;;;;;453.35;415.30;;;;;;;;;;4923020;29;20446;-73
2023/09/27 01:45:35;;;;;;;406.13;371.73;;;;;;;;;;4923590;29;20504;-73
2023/09/27 01:48:02;;;;;;;127.83;118.80;;;;;;;;;;4919700;29;20436;-72
2023/09/27 01:50:32;;;;;;;58.63;54.55;;;;;;;;;;4927579;29;20445;-73
2023/09/27 01:52:59;;;;;;;227.80;209.73;;;;;;;;;;4927381;29;20431;-73
2023/09/27 01:55:27;;;;;;;212.50;195.80;;;;;;;;;;4915695;29;20463;-73
2023/09/27 01:57:54;;;;;;;298.52;274.23;;;;;;;;;;4923331;29;20435;-73
2023/09/27 02:00:21;;;;;;;358.15;328.60;;;;;;;;;;4902904;29;20479;-73
2023/09/27 02:02:50;;;;;;;304.40;279.70;;;;;;;;;;4919851;29;20520;-73
2023/09/27 02:05:20;;;;;;;424.88;390.00;;;;;;;;;;4921489;29;20448;-73
2023/09/27 02:07:47;;;;;;;343.88;315.65;;;;;;;;;;4915957;29;20896;-74
2023/09/27 02:10:15;;;;;;;166.65;154.07;;;;;;;;;;4926066;29;20441;-73
2023/09/27 02:12:42;;;;;;;137.70;127.60;;;;;;;;;;4898010;29;20525;-73
2023/09/27 02:15:10;;;;;;;436.27;400.57;;;;;;;;;;4926243;29;21045;-73
2023/09/27 02:17:38;;;;;;;624.93;572.23;;;;;;;;;;4902850;29;20504;-73
2023/09/27 02:20:12;;;;;;;620.08;568.28;;;;;;;;;;4916039;29;20536;-73
2023/09/27 02:22:40;;;;;;;650.15;590.53;;;;;;;;;;4919552;29;20860;-73
2023/09/27 02:25:09;;;;;;;8.00;5.32;;;;;;;;;;4919917;29;21007;-73
2023/09/27 02:27:37;;;;;;;8.77;5.70;;;;;;;;;;4922165;29;20470;-73
2023/09/27 02:30:06;;;;;;;7.38;5.55;;;;;;;;;;4922736;29;20522;-73
2023/09/27 02:32:34;;;;;;;7.65;5.45;;;;;;;;;;4909451;29;20434;-73
2023/09/27 02:35:04;;;;;;;7.40;6.35;;;;;;;;;;4919899;29;20433;-73
2023/09/27 02:37:31;;;;;;;35.10;32.45;;;;;;;;;;4921890;29;20439;-73
2023/09/27 02:39:59;;;;;;;48.42;45.08;;;;;;;;;;4916789;29;20445;-73
2023/09/27 02:42:26;;;;;;;32.08;29.88;;;;;;;;;;4915830;29;20481;-73
2023/09/27 02:44:53;;;;;;;94.10;87.43;;;;;;;;;;4917397;29;20439;-73
2023/09/27 02:47:20;;;;;;;24.58;22.75;;;;;;;;;;4924962;29;20916;-73
2023/09/27 02:49:48;;;;;;;5.67;5.10;;;;;;;;;;4918290;29;20449;-73
2023/09/27 02:52:15;;;;;;;64.50;59.90;;;;;;;;;;4918848;29;20437;-72
2023/09/27 02:54:45;;;;;;;56.25;52.15;;;;;;;;;;4924605;29;20549;-73
2023/09/27 02:57:13;;;;;;;28.67;26.77;;;;;;;;;;4919390;29;20441;-72
2023/09/27 02:59:40;;;;;;;69.88;65.00;;;;;;;;;;4928546;29;20542;-73
2023/09/27 03:02:11;;;;;;;81.10;75.43;;;;;;;;;;4922163;29;20958;-73
2023/09/27 03:04:40;;;;;;;92.45;85.97;;;;;;;;;;4926029;29;20443;-72
2023/09/27 03:07:11;;;;;;;86.72;80.60;;;;;;;;;;4924368;29;20443;-72
2023/09/27 03:09:38;;;;;;;96.93;90.15;;;;;;;;;;4923508;29;20510;-73
2023/09/27 03:12:08;;;;;;;109.28;101.10;;;;;;;;;;4922679;29;20490;-73
2023/09/27 03:14:38;;;;;;;41.25;38.05;;;;;;;;;;4924805;29;20788;-73
2023/09/27 03:17:05;;;;;;;116.38;108.07;;;;;;;;;;4915226;29;20824;-73
2023/09/27 03:19:35;;;;;;;90.38;83.72;;;;;;;;;;4916345;29;20434;-73
2023/09/27 03:22:05;;;;;;;57.85;53.47;;;;;;;;;;4917739;29;20439;-73
2023/09/27 03:24:34;;;;;;;67.63;62.70;;;;;;;;;;4917762;29;20543;-73
2023/09/27 03:27:04;;;;;;;55.15;51.05;;;;;;;;;;4921841;29;20570;-73
2023/09/27 03:29:32;;;;;;;45.03;41.50;;;;;;;;;;4924988;29;20475;-72
2023/09/27 03:31:59;;;;;;;31.45;28.85;;;;;;;;;;4924187;29;20519;-73
2023/09/27 03:34:26;;;;;;;27.17;24.88;;;;;;;;;;4918821;29;20443;-73
2023/09/27 03:36:56;;;;;;;26.33;24.17;;;;;;;;;;4922842;29;20470;-73
2023/09/27 03:39:23;;;;;;;12.95;11.45;;;;;;;;;;4918831;29;20962;-73
2023/09/27 03:41:53;;;;;;;6.13;5.53;;;;;;;;;;4914997;29;20498;-72
2023/09/27 03:44:20;;;;;;;8.10;5.40;;;;;;;;;;4917633;29;20465;-73
2023/09/27 03:46:48;;;;;;;8.67;5.37;;;;;;;;;;4918073;29;20528;-73
2023/09/27 03:49:15;;;;;;;8.45;6.25;;;;;;;;;;4924612;29;20447;-73
2023/09/27 03:51:42;;;;;;;6.93;5.53;;;;;;;;;;4921047;29;20439;-73
2023/09/27 03:54:09;;;;;;;9.27;6.40;;;;;;;;;;4914589;29;20536;-74
2023/09/27 03:56:36;;;;;;;9.30;6.03;;;;;;;;;;4917552;29;20514;-73
2023/09/27 03:59:03;;;;;;;7.57;5.93;;;;;;;;;;4925904;29;20442;-72
2023/09/27 04:01:31;;;;;;;8.07;6.40;;;;;;;;;;4927064;29;20441;-72
2023/09/27 04:03:58;;;;;;;10.10;6.50;;;;;;;;;;4925561;29;20501;-73
2023/09/27 04:06:26;;;;;;;9.32;6.22;;;;;;;;;;4920080;29;20441;-73
2023/09/27 04:08:55;;;;;;;10.40;6.55;;;;;;;;;;4924514;29;21729;-73
2023/09/27 04:11:23;;;;;;;8.98;6.32;;;;;;;;;;4926612;29;20447;-73
2023/09/27 04:13:53;;;;;;;9.20;5.80;;;;;;;;;;4927774;29;20941;-72
2023/09/27 04:16:20;;;;;;;9.45;6.18;;;;;;;;;;4927685;29;20502;-73
2023/09/27 04:18:47;;;;;;;9.07;6.60;;;;;;;;;;4927670;29;20446;-73
2023/09/27 04:21:14;;;;;;;9.02;6.00;;;;;;;;;;4929492;29;20534;-72
2023/09/27 04:23:42;;;;;;;7.25;5.68;;;;;;;;;;4920608;29;20492;-73
2023/09/27 04:26:09;;;;;;;7.18;5.40;;;;;;;;;;4924308;29;20439;-73
2023/09/27 04:28:36;;;;;;;8.23;5.90;;;;;;;;;;4927058;29;20456;-73
2023/09/27 04:31:04;;;;;;;8.67;6.53;;;;;;;;;;4921622;29;20445;-73
2023/09/27 04:33:31;;;;;;;8.48;6.30;;;;;;;;;;4927227;29;20487;-73
2023/09/27 04:35:59;;;;;;;8.93;5.97;;;;;;;;;;4926895;29;20443;-73
2023/09/27 04:38:26;;;;;;;7.80;6.40;;;;;;;;;;4917331;29;20568;-73
2023/09/27 04:40:54;;;;;;;11.45;6.30;;;;;;;;;;4920607;29;20451;-73
2023/09/27 04:43:21;;;;;;;9.82;6.80;;;;;;;;;;4924913;29;20548;-73
2023/09/27 04:45:49;;;;;;;9.70;6.20;;;;;;;;;;4919781;29;20597;-73
2023/09/27 04:48:16;;;;;;;9.07;6.15;;;;;;;;;;4920128;29;20450;-73
2023/09/27 04:50:44;;;;;;;7.70;6.45;;;;;;;;;;4917274;29;20450;-73
2023/09/27 04:53:11;;;;;;;8.52;7.35;;;;;;;;;;4930667;29;20519;-73
2023/09/27 04:55:38;;;;;;;10.50;9.45;;;;;;;;;;4922948;29;20526;-73
2023/09/27 04:58:06;;;;;;;10.65;8.40;;;;;;;;;;4924279;29;20459;-73
2023/09/27 05:00:33;;;;;;;13.52;7.55;;;;;;;;;;4928306;29;21038;-73
2023/09/27 05:03:00;;;;;;;12.00;7.30;;;;;;;;;;4923680;29;20512;-71
2023/09/27 05:05:27;;;;;;;10.82;6.90;;;;;;;;;;4925816;29;20470;-71
2023/09/27 05:07:55;;;;;;;10.07;7.30;;;;;;;;;;4927144;29;20441;-71
2023/09/27 05:10:22;;;;;;;15.50;8.57;;;;;;;;;;4915455;29;20531;-71
2023/09/27 05:12:52;;;;;;;10.35;7.15;;;;;;;;;;4920222;29;20969;-71
2023/09/27 05:15:19;;;;;;;9.37;6.00;;;;;;;;;;4917847;29;20674;-71
2023/09/27 05:17:47;;;;;;;10.75;7.60;;;;;;;;;;4928996;29;20440;-71
2023/09/27 05:20:14;;;;;;;9.27;7.20;;;;;;;;;;4915607;29;20553;-72
2023/09/27 05:22:42;;;;;;;14.57;12.70;;;;;;;;;;4929918;29;20496;-72
2023/09/27 05:25:10;;;;;;;16.57;14.90;;;;;;;;;;4923953;29;20526;-71
2023/09/27 05:27:40;;;;;;;11.38;8.23;;;;;;;;;;4916803;29;20543;-71
2023/09/27 05:30:11;;;;;;;10.00;7.10;;;;;;;;;;4907547;29;20491;-71
2023/09/27 05:32:39;;;;;;;12.93;11.63;;;;;;;;;;4927051;29;20455;-71
2023/09/27 05:35:06;;;;;;;23.80;21.85;;;;;;;;;;4920154;29;21058;-71
2023/09/27 05:37:36;;;;;;;47.33;43.97;;;;;;;;;;4927886;29;22732;-71
2023/09/27 05:40:04;;;;;;;56.22;51.88;;;;;;;;;;4901848;29;20528;-71
2023/09/27 05:42:32;;;;;;;27.58;25.40;;;;;;;;;;4925012;29;20450;-71
2023/09/27 05:44:59;;;;;;;29.23;26.83;;;;;;;;;;4921708;29;20443;-71
2023/09/27 05:47:26;;;;;;;33.35;30.70;;;;;;;;;;4906557;29;20949;-71
2023/09/27 05:49:53;;;;;;;46.50;43.08;;;;;;;;;;4922910;29;20439;-71
2023/09/27 05:52:22;;;;;;;32.80;29.95;;;;;;;;;;4919983;29;20441;-71
2023/09/27 05:54:51;;;;;;;23.30;21.10;;;;;;;;;;4917295;29;20472;-71
2023/09/27 05:57:18;;;;;;;28.45;26.00;;;;;;;;;;4925908;29;20443;-71
2023/09/27 05:59:48;;;;;;;14.70;13.38;;;;;;;;;;4921967;29;20490;-71
2023/09/27 06:02:20;;;;;;;19.52;17.98;;;;;;;;;;4926119;29;20471;-70
2023/09/27 06:04:47;;;;;;;21.08;19.27;;;;;;;;;;4922433;29;20443;-70
2023/09/27 06:07:17;;;;;;;12.80;11.57;;;;;;;;;;4930356;29;20523;-70
2023/09/27 06:09:47;;;;;;;11.33;8.77;;;;;;;;;;4918856;29;20465;-71
2023/09/27 06:12:14;;;;;;;10.20;7.27;;;;;;;;;;4922175;29;20439;-70
2023/09/27 06:14:42;;;;;;;22.88;20.98;;;;;;;;;;4922995;29;20553;-70
2023/09/27 06:17:10;;;;;;;7.47;5.63;;;;;;;;;;4925692;29;20439;-70
2023/09/27 06:19:37;;;;;;;5.37;4.73;;;;;;;;;;4926264;29;20446;-70
2023/09/27 06:22:04;;;;;;;4.75;4.25;;;;;;;;;;4922676;29;20842;-70
2023/09/27 06:24:34;;;;;;;4.40;4.00;;;;;;;;;;4917302;29;20449;-70
2023/09/27 06:27:02;;;;;;;3.47;3.28;;;;;;;;;;4919033;29;20437;-71
2023/09/27 06:29:29;;;;;;;5.73;5.33;;;;;;;;;;4925693;29;20447;-71
2023/09/27 06:31:57;;;;;;;8.02;7.53;;;;;;;;;;4918747;29;20445;-71
2023/09/27 06:34:24;;;;;;;53.10;49.55;;;;;;;;;;4901637;29;20996;-70
2023/09/27 06:36:56;;;;;;;65.43;60.67;;;;;;;;;;4923778;29;20441;-70
2023/09/27 06:39:24;;;;;;;159.43;147.07;;;;;;;;;;4903645;29;20788;-71
2023/09/27 06:41:52;;;;;;;694.03;622.47;;;;;;;;;;4917492;29;20522;-71
2023/09/27 06:44:19;;;;;;;731.47;653.87;;;;;;;;;;4928026;29;20449;-71
2023/09/27 06:46:47;;;;;;;749.80;670.77;;;;;;;;;;4907212;29;20444;-71
2023/09/27 06:49:17;;;;;;;768.20;686.03;;;;;;;;;;4912125;29;20453;-70
2023/09/27 06:51:44;;;;;;;780.37;702.47;;;;;;;;;;4916072;29;20455;-71
2023/09/27 06:54:11;;;;;;;802.28;716.95;;;;;;;;;;4920675;29;20447;-71
2023/09/27 06:56:39;;;;;;;757.80;689.30;;;;;;;;;;4916091;29;20478;-71
2023/09/27 06:59:09;;;;;;;789.35;710.20;;;;;;;;;;4911186;29;20439;-71
2023/09/27 07:01:36;;;;;;;764.28;698.15;;;;;;;;;;4923569;29;20445;-71
2023/09/27 07:04:04;;;;;;;777.03;703.17;;;;;;;;;;4911371;29;20522;-72
2023/09/27 07:06:31;;;;;;;767.07;697.00;;;;;;;;;;4927414;29;20518;-72
2023/09/27 07:09:02;;;;;;;815.80;731.60;;;;;;;;;;4918105;29;20517;-71
2023/09/27 07:11:33;;;;;;;836.17;723.95;;;;;;;;;;4926451;29;20441;-71
2023/09/27 07:14:00;;;;;;;811.10;725.80;;;;;;;;;;4912612;29;20441;-71
2023/09/27 07:16:29;;;;;;;805.08;719.05;;;;;;;;;;4918862;29;20538;-72
2023/09/27 07:18:59;;;;;;;881.08;726.92;;;;;;;;;;4924036;29;20540;-71
2023/09/27 07:21:27;;;;;;;898.00;726.25;;;;;;;;;;4923928;29;20448;-72
2023/09/27 07:23:55;;;;;;;825.65;732.50;;;;;;;;;;4908399;29;20445;-71
2023/09/27 07:26:22;;;;;;;883.00;742.17;;;;;;;;;;4906281;29;20443;-71
2023/09/27 07:28:50;;;;;;;903.55;755.45;;;;;;;;;;4903908;29;20447;-72
2023/09/27 07:31:18;;;;;;;875.28;754.10;;;;;;;;;;4911949;29;20601;-72
2023/09/27 07:33:52;;;;;;;871.58;765.25;;;;;;;;;;4918407;29;20452;-72
2023/09/27 07:36:21;;;;;;;809.50;737.47;;;;;;;;;;4926085;29;20458;-72
2023/09/27 07:38:48;;;;;;;855.78;771.03;;;;;;;;;;4928482;29;20430;-72
2023/09/27 07:41:16;;;;;;;830.78;756.65;;;;;;;;;;4927492;29;20446;-72
2023/09/27 07:43:47;;;;;;;862.93;776.27;;;;;;;;;;4923262;29;20581;-71
2023/09/27 07:46:17;;;;;;;887.53;790.50;;;;;;;;;;4926787;29;20449;-72
2023/09/27 07:48:47;;;;;;;890.43;802.43;;;;;;;;;;4914650;29;21326;-72
2023/09/27 07:51:18;;;;;;;894.13;805.85;;;;;;;;;;4920099;29;20528;-73
2023/09/27 07:53:46;;;;;;;882.43;798.33;;;;;;;;;;4925733;29;20443;-70
2023/09/27 07:56:20;;;;;;;918.00;818.28;;;;;;;;;;4920175;29;20535;-70
2023/09/27 07:58:52;;;;;;;537.80;486.00;;;;;;;;;;4911268;29;20451;-71
2023/09/27 08:01:21;;;;;;;54.60;50.55;;;;;;;;;;4923910;29;20540;-71
2023/09/27 08:03:51;;;;;;;494.33;444.95;;;;;;;;;;4928574;29;20443;-71
2023/09/27 08:06:19;;;;;;;621.45;565.13;;;;;;;;;;4931154;29;20440;-71
2023/09/27 08:08:47;;;;;;;858.17;784.63;;;;;;;;;;4906388;29;20437;-70
2023/09/27 08:11:14;;;;;;;755.83;690.17;;;;;;;;;;4922570;29;20456;-70
2023/09/27 08:13:44;;;;;;;838.10;763.10;;;;;;;;;;4930530;29;20439;-71
2023/09/27 08:16:20;;;;;;;647.17;588.87;;;;;;;;;;4931743;29;20449;-71
2023/09/27 08:18:47;;;;;;;715.95;652.45;;;;;;;;;;4922426;29;20908;-71
2023/09/27 08:21:14;;;;;;;488.55;441.65;;;;;;;;;;4927721;29;20443;-71
2023/09/27 08:23:42;;;;;;;692.57;630.27;;;;;;;;;;4925035;29;20441;-71
2023/09/27 08:26:12;;;;;;;278.08;253.90;;;;;;;;;;4922020;29;20445;-71
2023/09/27 08:28:40;;;;;;;342.30;310.10;;;;;;;;;;4914477;29;20452;-71
2023/09/27 08:31:07;;;;;;;664.30;604.30;;;;;;;;;;4923092;29;20443;-71
2023/09/27 08:33:34;;;;;;;315.75;287.80;;;;;;;;;;4919531;29;20445;-71
2023/09/27 08:36:02;;;;;;;604.20;548.45;;;;;;;;;;4927033;29;20439;-70
2023/09/27 08:38:32;;;;;;;109.80;101.53;;;;;;;;;;4918958;29;20445;-72
2023/09/27 08:41:03;;;;;;;24.00;22.15;;;;;;;;;;4916424;29;20439;-71
2023/09/27 08:43:32;;;;;;;68.68;62.85;;;;;;;;;;4922543;29;20439;-71
2023/09/27 08:46:00;;;;;;;81.85;75.35;;;;;;;;;;4919815;29;20439;-71
2023/09/27 08:48:28;;;;;;;161.85;148.88;;;;;;;;;;4922859;29;20439;-71
2023/09/27 08:51:03;;;;;;;565.05;512.15;;;;;;;;;;4922794;29;21137;-71
2023/09/27 08:53:32;;;;;;;820.73;745.53;;;;;;;;;;4927681;29;20523;-72
2023/09/27 08:56:04;;;;;;;891.80;804.80;;;;;;;;;;4927712;29;20461;-72
2023/09/27 08:58:34;;;;;;;899.22;816.05;;;;;;;;;;4923554;29;20961;-71
2023/09/27 09:01:01;;;;;;;755.10;688.55;;;;;;;;;;4911026;29;20971;-72
2023/09/27 09:03:31;;;;;;;941.45;846.65;;;;;;;;;;4918769;29;20449;-73
2023/09/27 09:05:59;;;;;;;902.42;820.65;;;;;;;;;;4927813;29;20532;-73
2023/09/27 09:08:26;;;;;;;477.15;429.88;;;;;;;;;;4928791;29;20534;-72
2023/09/27 09:11:10;;;;;;;482.63;434.48;;;;;;;;;;4906508;29;20528;-73
2023/09/27 09:13:57;;;;;;;244.05;223.55;;;;;;;;;;4927908;29;20956;-73
2023/09/27 09:16:24;;;;;;;206.80;189.70;;;;;;;;;;4907586;29;20443;-73
2023/09/27 09:18:54;;;;;;;291.92;266.30;;;;;;;;;;4928867;29;20531;-73
2023/09/27 09:21:25;;;;;;;452.63;409.92;;;;;;;;;;4928173;29;20531;-74
2023/09/27 09:23:55;;;;;;;315.80;286.87;;;;;;;;;;4930698;29;20447;-73
2023/09/27 09:26:29;;;;;;;570.85;515.42;;;;;;;;;;4926419;29;20451;-74
2023/09/27 09:29:00;;;;;;;954.53;852.97;;;;;;;;;;4923660;29;20493;-72
2023/09/27 09:31:31;;;;;;;762.08;694.83;;;;;;;;;;4923827;29;20494;-73
2023/09/27 09:34:09;;;;;;;725.28;660.30;;;;;;;;;;4914841;29;20565;-73
2023/09/27 09:36:39;;;;;;;844.75;771.28;;;;;;;;;;4927194;29;20996;-72
2023/09/27 09:39:13;;;;;;;965.45;863.08;;;;;;;;;;4919208;29;20440;-73
2023/09/27 09:41:45;;;;;;;849.78;776.58;;;;;;;;;;4924535;29;20448;-73
2023/09/27 09:44:23;;;;;;;930.77;846.43;;;;;;;;;;4926132;29;20447;-73
2023/09/27 09:46:53;;;;;;;926.92;841.80;;;;;;;;;;4922628;29;20955;-73
2023/09/27 09:49:23;;;;;;;798.05;725.95;;;;;;;;;;4922110;29;20459;-73
2023/09/27 09:51:52;;;;;;;561.35;507.20;;;;;;;;;;4925025;29;20777;-74
2023/09/27 09:54:23;;;;;;;808.50;738.50;;;;;;;;;;4922031;29;20444;-72
2023/09/27 09:56:54;;;;;;;707.38;644.13;;;;;;;;;;4908088;29;20456;-73
2023/09/27 09:59:45;;;;;;;670.72;609.50;;;;;;;;;;4915049;29;20432;-74
2023/09/27 10:02:20;;;;;;;604.38;547.50;;;;;;;;;;4919771;29;20486;-73
2023/09/27 10:04:55;;;;;;;460.27;414.10;;;;;;;;;;4928533;29;20450;-74
2023/09/27 10:07:24;;;;;;;467.48;420.73;;;;;;;;;;4908160;29;20443;-73
2023/09/27 10:09:52;;;;;;;404.30;365.05;;;;;;;;;;4915017;29;20438;-73
2023/09/27 10:12:21;;;;;;;372.95;337.75;;;;;;;;;;4919638;29;20459;-72
2023/09/27 10:14:51;;;;;;;883.40;804.43;;;;;;;;;;4922387;29;20959;-73
2023/09/27 10:17:20;;;;;;;966.38;877.97;;;;;;;;;;4924471;29;20500;-73
2023/09/27 10:20:05;;;;;;;980.15;896.50;;;;;;;;;;4921664;29;20458;-73
2023/09/27 10:22:32;;;;;;;569.75;515.10;;;;;;;;;;4918875;29;20445;-73
2023/09/27 10:25:00;;;;;;;382.17;345.42;;;;;;;;;;4920763;29;20440;-73
2023/09/27 10:27:45;;;;;;;982.72;895.83;;;;;;;;;;4929597;29;20471;-73
2023/09/27 10:30:13;;;;;;;567.58;513.65;;;;;;;;;;4923029;29;20497;-73
2023/09/27 10:32:40;;;;;;;859.55;786.05;;;;;;;;;;4927287;29;20443;-73
2023/09/27 10:35:17;;;;;;;975.42;885.53;;;;;;;;;;4928784;29;20450;-73
2023/09/27 10:38:00;;;;;;;426.48;387.08;;;;;;;;;;4921514;29;20530;-74
2023/09/27 10:40:27;;;;;;;866.63;786.10;;;;;;;;;;4918918;29;20454;-72
2023/09/27 10:42:55;;;;;;;1033.40;923.22;;;;;;;;;;4924105;29;20941;-72
2023/09/27 10:45:23;;;;;;;1038.72;942.10;;;;;;;;;;4925262;29;20439;-72
2023/09/27 10:47:54;;;;;;;957.42;871.80;;;;;;;;;;4920661;29;21034;-73
2023/09/27 10:50:29;;;;;;;1030.60;922.78;;;;;;;;;;4927257;29;20456;-72
2023/09/27 10:52:59;;;;;;;1063.80;949.45;;;;;;;;;;4923528;29;20510;-73
2023/09/27 10:55:26;;;;;;;1059.53;952.90;;;;;;;;;;4928741;29;20944;-72
2023/09/27 10:57:54;;;;;;;1067.53;961.20;;;;;;;;;;4921681;29;20522;-75
2023/09/27 11:00:29;;;;;;;1058.55;955.17;;;;;;;;;;4916786;29;20474;-72
2023/09/27 11:02:56;;;;;;;1032.93;925.08;;;;;;;;;;4914615;29;20528;-74
2023/09/27 11:05:24;;;;;;;1000.27;901.60;;;;;;;;;;4917650;29;20452;-73
2023/09/27 11:07:59;;;;;;;1049.07;936.80;;;;;;;;;;4921870;29;21055;-73
2023/09/27 11:10:36;;;;;;;1032.43;924.83;;;;;;;;;;4924020;29;20862;-73
2023/09/27 11:13:13;;;;;;;994.25;896.88;;;;;;;;;;4924499;29;20795;-73
2023/09/27 11:15:41;;;;;;;1014.38;903.20;;;;;;;;;;4927154;29;20896;-73
2023/09/27 11:18:12;;;;;;;982.17;885.45;;;;;;;;;;4909171;29;20445;-72
2023/09/27 11:20:45;;;;;;;981.60;885.20;;;;;;;;;;4932248;29;20453;-73
2023/09/27 11:23:12;;;;;;;983.55;888.08;;;;;;;;;;4926604;29;20517;-73
2023/09/27 11:25:41;;;;;;;942.17;861.03;;;;;;;;;;4915370;29;20448;-73
2023/09/27 11:28:18;;;;;;;1101.03;989.47;;;;;;;;;;4921864;29;20452;-73
2023/09/27 11:30:46;;;;;;;1118.60;999.90;;;;;;;;;;4922982;29;20502;-73
2023/09/27 11:33:16;;;;;;;1046.53;956.33;;;;;;;;;;4931806;29;20941;-74
2023/09/27 11:35:49;;;;;;;739.67;673.58;;;;;;;;;;4917775;29;20504;-74
2023/09/27 11:38:16;;;;;;;516.57;466.77;;;;;;;;;;4927659;29;20442;-74
2023/09/27 11:40:46;;;;;;;534.72;483.95;;;;;;;;;;4920506;29;20433;-73
2023/09/27 11:43:13;;;;;;;322.27;294.02;;;;;;;;;;4924478;29;20461;-74
2023/09/27 11:45:50;;;;;;;255.90;234.18;;;;;;;;;;4925419;29;20450;-74
2023/09/27 11:48:32;;;;;;;245.52;224.85;;;;;;;;;;4920199;29;20814;-72
2023/09/27 11:51:00;;;;;;;297.08;271.80;;;;;;;;;;4931343;29;20445;-74
2023/09/27 11:53:30;;;;;;;349.80;318.48;;;;;;;;;;4924689;29;20525;-74
2023/09/27 11:56:01;;;;;;;908.43;828.20;;;;;;;;;;4927364;29;20446;-73
2023/09/27 11:58:28;;;;;;;459.00;414.97;;;;;;;;;;4926305;29;20449;-73
2023/09/27 12:00:55;;;;;;;168.48;154.30;;;;;;;;;;4904342;29;20923;-73
2023/09/27 12:03:22;;;;;;;192.55;176.30;;;;;;;;;;4923539;29;20447;-74
2023/09/27 12:05:50;;;;;;;395.50;358.20;;;;;;;;;;4926101;29;20476;-74
2023/09/27 12:08:18;;;;;;;1051.53;958.22;;;;;;;;;;4927736;29;21772;-74
2023/09/27 12:10:48;;;;;;;544.35;494.55;;;;;;;;;;4924520;29;21019;-71
2023/09/27 12:13:18;;;;;;;853.97;780.97;;;;;;;;;;4929679;29;20435;-73
2023/09/27 12:15:48;;;;;;;565.42;514.22;;;;;;;;;;4924679;29;20475;-72
2023/09/27 12:18:15;;;;;;;257.63;235.13;;;;;;;;;;4926536;29;20751;-73
2023/09/27 12:20:44;;;;;;;213.00;195.32;;;;;;;;;;4924427;29;20444;-73
2023/09/27 12:23:15;;;;;;;192.10;174.60;;;;;;;;;;4930270;29;20542;-73
2023/09/27 12:25:45;;;;;;;132.38;120.22;;;;;;;;;;4932551;29;20921;-73
2023/09/27 12:28:14;;;;;;;36.15;33.33;;;;;;;;;;4922470;29;20535;-73
2023/09/27 12:30:45;;;;;;;7.38;6.57;;;;;;;;;;4928296;29;20439;-73
2023/09/27 12:33:12;;;;;;;8.00;7.35;;;;;;;;;;4931084;29;20450;-74
2023/09/27 12:35:39;;;;;;;40.90;38.00;;;;;;;;;;4919858;29;20443;-73
2023/09/27 12:38:07;;;;;;;415.00;377.00;;;;;;;;;;4921505;29;20460;-72
2023/09/27 12:40:34;;;;;;;361.50;329.83;;;;;;;;;;4921798;29;20531;-73
2023/09/27 12:43:02;;;;;;;238.77;219.02;;;;;;;;;;4907609;29;20538;-73
2023/09/27 12:45:30;;;;;;;11.55;10.52;;;;;;;;;;4925805;29;20510;-73
2023/09/27 12:47:57;;;;;;;19.02;17.75;;;;;;;;;;4905899;29;20463;-73
2023/09/27 12:50:27;;;;;;;29.13;27.15;;;;;;;;;;4926172;29;20491;-73
2023/09/27 12:52:57;;;;;;;8.00;7.30;;;;;;;;;;4921320;29;20449;-63
2023/09/27 12:55:24;;;;;;;7.30;6.63;;;;;;;;;;4923193;29;20439;-64
2023/09/27 12:57:52;;;;;;;7.93;7.25;;;;;;;;;;4926258;29;21012;-63
2023/09/27 13:00:19;;;;;;;12.32;11.27;;;;;;;;;;4920540;29;20440;-62
2023/09/27 13:02:46;;;;;;;67.20;62.33;;;;;;;;;;4918701;29;20449;-63
2023/09/27 13:05:14;;;;;;;118.45;107.90;;;;;;;;;;4923276;29;20448;-63
2023/09/27 13:07:41;;;;;;;7.65;6.80;;;;;;;;;;4918733;29;20462;-62
2023/09/27 13:10:08;;;;;;;11.05;10.23;;;;;;;;;;4921684;29;20512;-62
2023/09/27 13:12:37;;;;;;;8.38;7.72;;;;;;;;;;4924307;29;20447;-63
2023/09/27 13:15:06;;;;;;;126.40;115.80;;;;;;;;;;4921385;29;20443;-63
2023/09/27 13:17:33;;;;;;;5.72;5.20;;;;;;;;;;4917122;29;20983;-63
2023/09/27 13:20:00;;;;;;;60.72;56.33;;;;;;;;;;4921440;29;20853;-62
2023/09/27 13:22:28;;;;;;;31.73;29.60;;;;;;;;;;4918139;29;20448;-63
2023/09/27 13:24:55;;;;;;;251.40;228.88;;;;;;;;;;4907945;29;20490;-63
2023/09/27 13:27:24;;;;;;;37.63;35.13;;;;;;;;;;4911629;29;20540;-62
2023/09/27 13:29:51;;;;;;;35.80;33.35;;;;;;;;;;4904171;29;20441;-62
2023/09/27 13:32:19;;;;;;;342.75;314.13;;;;;;;;;;4927694;29;20446;-62
2023/09/27 13:34:46;;;;;;;200.90;184.35;;;;;;;;;;4911131;29;22462;-63
2023/09/27 13:37:13;;;;;;;646.45;589.63;;;;;;;;;;4922208;29;20439;-63
2023/09/27 13:39:40;;;;;;;16.88;15.85;;;;;;;;;;4924314;29;21660;-63
2023/09/27 13:42:08;;;;;;;262.17;240.57;;;;;;;;;;4920058;29;20860;-63
2023/09/27 13:44:35;;;;;;;143.23;131.85;;;;;;;;;;4918109;29;20473;-64
2023/09/27 13:47:02;;;;;;;993.43;904.80;;;;;;;;;;4924904;29;20439;-62
2023/09/27 13:49:29;;;;;;;748.47;683.83;;;;;;;;;;4920235;29;20452;-62
2023/09/27 13:51:57;;;;;;;773.45;705.22;;;;;;;;;;4925192;29;20439;-62
2023/09/27 13:54:27;;;;;;;366.23;333.75;;;;;;;;;;4917720;29;21092;-64
2023/09/27 13:56:55;;;;;;;167.25;153.85;;;;;;;;;;4925208;29;20515;-62
2023/09/27 13:59:22;;;;;;;37.33;34.65;;;;;;;;;;4923530;29;20445;-62
2023/09/27 14:01:49;;;;;;;15.13;13.80;;;;;;;;;;4918478;29;20443;-62
2023/09/27 14:04:17;;;;;;;124.60;114.57;;;;;;;;;;4919004;29;20441;-62
2023/09/27 14:06:44;;;;;;;128.10;117.88;;;;;;;;;;4921331;29;20847;-62
2023/09/27 14:09:11;;;;;;;48.50;45.10;;;;;;;;;;4920578;29;20442;-62
2023/09/27 14:11:41;;;;;;;290.02;265.70;;;;;;;;;;4920977;29;20463;-62
2023/09/27 14:14:08;;;;;;;333.00;303.83;;;;;;;;;;4923671;29;20807;-62
2023/09/27 14:16:36;;;;;;;881.60;807.13;;;;;;;;;;4920702;29;20480;-63